Time;durP1;ratioP1;P1;durP2;ratioP2;P2;SDS_P1;SDS_P2;PMS_P1;PMS_P2;Temp;Humidity;BMP_temperature;BMP_pressure;BME280_temperature;BME280_humidity;BME280_pressure;Samples;Min_cycle;Max_cycle;Signal;HPM_P1;HPM_P2
2021/09/27 00:00:23;;;;;;;20.98;18.77;;;;;;;19.44;100.00;100891.31;4967943;28;20189;-77
2021/09/27 00:02:49;;;;;;;25.13;18.90;;;;;;;19.44;100.00;100891.31;5000574;28;20204;-78
2021/09/27 00:05:17;;;;;;;20.20;18.10;;;;;;;19.55;100.00;100887.09;4982629;28;20181;-79
2021/09/27 00:07:47;;;;;;;20.98;18.70;;;;;;;19.45;100.00;100888.25;4983724;28;20201;-78
2021/09/27 00:10:17;;;;;;;23.40;19.30;;;;;;;19.35;100.00;100876.72;4999348;28;20191;-79
2021/09/27 00:12:45;;;;;;;24.60;21.33;;;;;;;19.43;100.00;100875.91;5015630;28;20203;-78
2021/09/27 00:15:15;;;;;;;34.75;22.45;;;;;;;19.47;100.00;100871.38;4998647;28;20247;-79
2021/09/27 00:17:43;;;;;;;22.00;19.08;;;;;;;19.29;100.00;100875.28;4983982;28;20221;-76
2021/09/27 00:20:09;;;;;;;29.23;20.83;;;;;;;19.40;100.00;100871.84;4996204;28;20193;-79
2021/09/27 00:22:37;;;;;;;24.73;20.80;;;;;;;19.43;100.00;100879.50;4996545;28;20208;-78
2021/09/27 00:25:03;;;;;;;24.88;19.02;;;;;;;19.36;100.00;100881.91;4982811;28;20203;-77
2021/09/27 00:27:29;;;;;;;22.85;19.67;;;;;;;19.45;100.00;100879.13;4999634;28;20197;-78
2021/09/27 00:29:54;;;;;;;20.40;18.40;;;;;;;19.35;100.00;100877.53;4999189;28;20193;-78
2021/09/27 00:32:25;;;;;;;27.75;21.85;;;;;;;19.33;100.00;100873.47;4997506;28;20229;-78
2021/09/27 00:34:50;;;;;;;21.05;18.77;;;;;;;19.30;100.00;100871.38;4992132;28;20194;-78
2021/09/27 00:37:18;;;;;;;21.25;17.90;;;;;;;19.20;100.00;100877.22;4974192;28;20229;-78
2021/09/27 00:39:46;;;;;;;19.77;17.75;;;;;;;19.23;100.00;100884.84;4970010;28;20200;-78
2021/09/27 00:42:14;;;;;;;20.88;18.58;;;;;;;19.26;100.00;100891.63;4992367;28;20611;-77
2021/09/27 00:44:42;;;;;;;28.65;19.92;;;;;;;19.25;100.00;100882.56;5014927;28;20199;-77
2021/09/27 00:47:10;;;;;;;20.17;17.90;;;;;;;19.28;100.00;100892.94;4980612;28;20709;-78
2021/09/27 00:49:38;;;;;;;22.80;18.73;;;;;;;19.08;100.00;100892.75;4999460;28;20181;-78
2021/09/27 00:52:09;;;;;;;23.05;18.77;;;;;;;19.16;100.00;100890.00;5015587;28;20229;-77
2021/09/27 00:54:35;;;;;;;22.73;19.48;;;;;;;19.16;100.00;100879.00;4978974;28;20560;-78
2021/09/27 00:57:07;;;;;;;29.88;19.95;;;;;;;19.19;100.00;100883.84;4993842;28;20225;-78
2021/09/27 00:59:32;;;;;;;20.65;18.55;;;;;;;19.16;100.00;100890.00;4986845;28;20189;-78
2021/09/27 01:01:58;;;;;;;21.10;18.75;;;;;;;19.17;100.00;100886.09;4980916;28;20247;-78
2021/09/27 01:04:23;;;;;;;20.05;18.02;;;;;;;19.21;100.00;100887.09;4977839;28;20217;-77
2021/09/27 01:07:19;;;;;;;20.05;17.77;;;;;;;19.15;100.00;100893.88;4992542;28;20210;-77
2021/09/27 01:10:03;;;;;;;21.95;18.42;;;;;;;18.96;100.00;100887.84;4999177;28;20609;-77
2021/09/27 01:12:56;;;;;;;24.80;20.75;;;;;;;19.12;100.00;100883.53;5012894;28;20233;-77
2021/09/27 01:15:34;;;;;;;20.48;18.45;;;;;;;19.21;100.00;100884.34;4994308;28;20209;-77
2021/09/27 01:18:12;;;;;;;24.30;21.80;;;;;;;19.15;100.00;100882.88;4961374;28;20224;-76
2021/09/27 01:21:09;;;;;;;26.48;20.58;;;;;;;19.17;100.00;100883.34;5008181;28;20225;-76
2021/09/27 01:23:58;;;;;;;26.60;21.60;;;;;;;19.23;100.00;100884.84;5013229;28;20185;-77
2021/09/27 01:26:50;;;;;;;29.63;22.05;;;;;;;19.29;100.00;100876.06;4992495;28;20229;-77
2021/09/27 01:29:30;;;;;;;22.80;19.25;;;;;;;19.26;100.00;100873.16;4994894;28;20205;-77
2021/09/27 01:32:15;;;;;;;23.50;18.35;;;;;;;19.19;100.00;100878.31;4990922;28;20236;-77
2021/09/27 01:34:47;;;;;;;30.75;20.38;;;;;;;19.11;100.00;100881.91;5013069;28;20231;-76
2021/09/27 01:37:18;;;;;;;25.45;20.25;;;;;;;19.24;100.00;100871.88;4996557;28;20587;-76
2021/09/27 01:39:57;;;;;;;22.88;20.42;;;;;;;19.27;100.00;100875.59;4977386;28;20203;-77
2021/09/27 01:42:26;;;;;;;27.85;21.88;;;;;;;19.24;100.00;100883.69;4975026;28;20662;-77
2021/09/27 01:44:59;;;;;;;26.77;21.75;;;;;;;19.27;100.00;100874.78;4999017;28;20227;-77
2021/09/27 01:47:50;;;;;;;27.58;22.88;;;;;;;19.22;100.00;100866.69;4996217;28;20224;-76
2021/09/27 01:50:26;;;;;;;27.42;22.13;;;;;;;19.04;100.00;100870.53;4995776;28;20185;-76
2021/09/27 01:53:00;;;;;;;26.55;20.98;;;;;;;19.02;100.00;100877.50;4981625;28;20267;-76
2021/09/27 01:55:31;;;;;;;23.30;20.73;;;;;;;18.88;100.00;100882.31;4996006;28;20709;-76
2021/09/27 01:58:15;;;;;;;29.85;23.25;;;;;;;18.88;100.00;100882.31;4992631;28;20209;-76
2021/09/27 02:00:51;;;;;;;25.00;22.30;;;;;;;19.00;100.00;100872.31;4986056;28;20216;-76
2021/09/27 02:03:22;;;;;;;42.22;25.80;;;;;;;19.04;100.00;100872.50;4997701;28;20942;-76
2021/09/27 02:05:57;;;;;;;43.75;24.67;;;;;;;19.11;100.00;100876.38;5011666;28;20255;-76
2021/09/27 02:08:27;;;;;;;38.20;24.95;;;;;;;19.04;100.00;100876.06;5012497;28;20204;-76
2021/09/27 02:10:53;;;;;;;28.92;23.00;;;;;;;19.08;100.00;100877.06;4995647;28;20311;-76
2021/09/27 02:13:31;;;;;;;28.48;22.73;;;;;;;19.01;100.00;100886.91;5012242;28;20185;-76
2021/09/27 02:16:02;;;;;;;26.65;22.20;;;;;;;19.08;100.00;100892.75;4995271;28;20223;-76
2021/09/27 02:18:36;;;;;;;27.08;21.35;;;;;;;19.04;100.00;100881.56;4980068;28;20205;-76
2021/09/27 02:21:06;;;;;;;26.02;22.30;;;;;;;19.15;100.00;100882.88;4979956;28;20224;-76
2021/09/27 02:23:37;;;;;;;26.83;22.38;;;;;;;19.24;100.00;100889.19;4997249;28;20192;-78
2021/09/27 02:26:03;;;;;;;31.55;23.13;;;;;;;19.23;100.00;100879.34;4961048;28;20274;-77
2021/09/27 02:28:30;;;;;;;25.27;21.58;;;;;;;19.29;100.00;100872.50;4972941;28;20210;-75
2021/09/27 02:31:02;;;;;;;31.70;23.63;;;;;;;19.28;100.00;100882.75;4975973;28;20296;-76
2021/09/27 02:33:45;;;;;;;25.60;21.60;;;;;;;19.21;100.00;100881.59;4994033;28;20182;-78
2021/09/27 02:36:17;;;;;;;26.63;21.42;;;;;;;19.26;100.00;100884.16;5001246;28;20604;-76
2021/09/27 02:38:54;;;;;;;26.70;22.50;;;;;;;19.22;100.00;100877.69;4995890;28;20211;-77
2021/09/27 02:42:05;;;;;;;35.20;23.35;;;;;;;19.24;100.00;100886.44;4980115;28;20214;-77
2021/09/27 02:44:30;;;;;;;22.95;20.15;;;;;;;19.05;100.00;100879.63;4986533;28;20276;-77
2021/09/27 02:46:58;;;;;;;25.20;20.92;;;;;;;19.05;100.00;100877.69;4991425;28;20252;-78
2021/09/27 02:49:30;;;;;;;27.70;23.00;;;;;;;19.01;100.00;100886.91;4976479;28;20542;-78
2021/09/27 02:52:01;;;;;;;27.75;22.85;;;;;;;19.03;100.00;100890.16;4985263;28;20225;-78
2021/09/27 02:54:37;;;;;;;32.70;23.92;;;;;;;18.98;100.00;100887.56;4992543;28;20178;-78
2021/09/27 02:57:25;;;;;;;28.77;23.38;;;;;;;18.92;100.00;100884.13;4972142;28;20222;-77
2021/09/27 03:00:18;;;;;;;30.20;23.50;;;;;;;18.99;100.00;100880.91;4988622;28;20190;-77
2021/09/27 03:02:56;;;;;;;31.02;23.98;;;;;;;18.87;100.00;100875.19;4980171;28;20220;-77
2021/09/27 03:06:00;;;;;;;30.63;24.85;;;;;;;18.87;100.00;100882.66;5011470;28;20188;-77
2021/09/27 03:08:52;;;;;;;30.05;24.33;;;;;;;18.90;100.00;100875.38;4992724;28;20739;-78
2021/09/27 03:11:27;;;;;;;33.17;24.90;;;;;;;18.90;100.00;100874.56;5002687;28;20229;-77
2021/09/27 03:14:18;;;;;;;31.98;25.13;;;;;;;18.87;100.00;100896.41;5012034;28;20195;-77
2021/09/27 03:17:08;;;;;;;37.15;25.67;;;;;;;19.01;100.00;100887.72;4996082;28;20235;-78
2021/09/27 03:19:49;;;;;;;34.20;25.73;;;;;;;18.83;100.00;100889.91;5017911;28;20180;-79
2021/09/27 03:22:39;;;;;;;34.03;26.10;;;;;;;18.87;100.00;100880.69;5015228;28;20282;-78
2021/09/27 03:25:49;;;;;;;33.92;25.13;;;;;;;18.78;100.00;100890.88;5017078;28;20188;-78
2021/09/27 03:28:36;;;;;;;31.58;24.33;;;;;;;18.80;100.00;100879.56;4991671;28;20206;-78
2021/09/27 03:31:04;;;;;;;31.83;24.98;;;;;;;18.87;100.00;100879.91;5008782;28;20782;-77
2021/09/27 03:33:37;;;;;;;37.17;26.02;;;;;;;18.84;100.00;100886.03;5008078;28;20217;-77
2021/09/27 03:36:31;;;;;;;39.00;26.25;;;;;;;18.79;100.00;100881.50;4959841;28;20236;-78
2021/09/27 03:38:59;;;;;;;38.13;26.40;;;;;;;18.77;100.00;100875.50;4994011;28;20209;-78
2021/09/27 03:41:31;;;;;;;38.40;26.45;;;;;;;18.69;100.00;100880.97;4988844;28;20304;-77
2021/09/27 03:44:25;;;;;;;45.35;27.48;;;;;;;18.81;100.00;100878.41;4998825;28;20212;-78
2021/09/27 03:47:24;;;;;;;45.80;26.90;;;;;;;18.79;100.00;100880.66;4993994;28;20205;-78
2021/09/27 03:50:08;;;;;;;45.13;27.13;;;;;;;18.79;100.00;100877.91;4997217;28;20335;-78
2021/09/27 03:52:48;;;;;;;49.88;27.65;;;;;;;18.80;100.00;100872.09;5004010;28;20220;-78
2021/09/27 03:55:18;;;;;;;41.15;25.52;;;;;;;18.90;100.00;100875.38;4982421;28;20216;-78
2021/09/27 03:57:52;;;;;;;38.85;26.95;;;;;;;18.89;100.00;100862.72;5013274;28;20274;-78
2021/09/27 04:00:26;;;;;;;43.95;26.58;;;;;;;18.79;100.00;100873.25;5000129;28;20181;-78
2021/09/27 04:03:00;;;;;;;48.45;27.13;;;;;;;18.84;100.00;100872.25;5009788;28;20220;-78
2021/09/27 04:05:40;;;;;;;41.58;24.15;;;;;;;18.77;100.00;100870.00;4995983;28;20224;-79
2021/09/27 04:08:11;;;;;;;37.13;23.73;;;;;;;18.70;100.00;100875.16;5015780;28;20217;-79
2021/09/27 04:10:55;;;;;;;37.53;24.50;;;;;;;18.72;100.00;100872.09;5016010;28;20235;-78
2021/09/27 04:13:39;;;;;;;37.88;24.33;;;;;;;18.68;100.00;100879.34;5000027;28;20196;-76
2021/09/27 04:16:12;;;;;;;36.67;23.65;;;;;;;18.58;100.00;100871.41;5000867;28;20220;-77
2021/09/27 04:18:49;;;;;;;38.88;23.85;;;;;;;18.59;100.00;100870.28;4974370;28;20297;-78
2021/09/27 04:21:38;;;;;;;40.78;23.25;;;;;;;18.72;100.00;100872.09;5010909;28;20268;-78
2021/09/27 04:24:19;;;;;;;33.80;22.60;;;;;;;18.69;100.00;100878.22;4980891;28;20200;-78
2021/09/27 04:27:08;;;;;;;35.17;23.17;;;;;;;18.76;100.00;100878.56;4975913;28;20347;-78
2021/09/27 04:30:00;;;;;;;45.72;29.08;;;;;;;18.80;100.00;100876.78;4979586;28;20589;-78
2021/09/27 04:32:32;;;;;;;28.42;22.25;;;;;;;18.77;100.00;100869.16;5007371;28;20308;-77
2021/09/27 04:35:21;;;;;;;37.22;22.70;;;;;;;18.83;100.00;100867.88;4996258;28;20228;-77
2021/09/27 04:37:47;;;;;;;33.05;21.92;;;;;;;18.73;100.00;100862.69;5010022;28;20293;-77
2021/09/27 04:40:15;;;;;;;35.75;21.83;;;;;;;18.78;100.00;100860.59;4992952;28;20174;-77
2021/09/27 04:42:47;;;;;;;28.50;21.30;;;;;;;18.87;100.00;100853.16;4980039;28;20177;-78
2021/09/27 04:45:24;;;;;;;36.08;21.85;;;;;;;18.80;100.00;100852.03;4996161;28;20265;-78
2021/09/27 04:48:15;;;;;;;35.63;22.23;;;;;;;18.73;100.00;100851.69;4995400;28;20749;-78
2021/09/27 04:51:00;;;;;;;45.85;23.33;;;;;;;18.67;100.00;100847.47;5011969;28;20225;-77
2021/09/27 04:53:44;;;;;;;37.58;23.42;;;;;;;18.82;100.00;100845.06;4994342;28;20217;-77
2021/09/27 04:56:25;;;;;;;36.92;23.45;;;;;;;18.94;100.00;100837.78;4995199;28;20721;-77
2021/09/27 04:58:59;;;;;;;38.13;24.58;;;;;;;18.94;100.00;100837.00;5012766;28;20201;-77
2021/09/27 05:01:39;;;;;;;35.83;23.77;;;;;;;18.79;100.00;100840.22;4978907;28;20640;-77
2021/09/27 05:04:12;;;;;;;54.70;26.77;;;;;;;18.68;100.00;100844.41;4974886;28;20189;-77
2021/09/27 05:06:53;;;;;;;47.80;25.13;;;;;;;18.81;100.00;100828.84;4983650;28;20725;-77
2021/09/27 05:09:51;;;;;;;38.20;23.92;;;;;;;18.62;100.00;100833.84;5004779;28;20288;-77
2021/09/27 05:12:36;;;;;;;37.13;23.52;;;;;;;18.58;100.00;100833.66;5016734;28;20221;-77
2021/09/27 05:15:08;;;;;;;35.17;22.52;;;;;;;18.56;100.00;100832.38;4997639;28;20277;-77
2021/09/27 05:18:02;;;;;;;40.60;23.75;;;;;;;18.64;100.00;100842.59;4993286;28;20235;-76
2021/09/27 05:21:04;;;;;;;37.50;22.17;;;;;;;18.74;100.00;100831.28;4993119;28;20224;-76
2021/09/27 05:23:48;;;;;;;36.85;22.42;;;;;;;18.74;100.00;100825.78;4978585;28;20630;-76
2021/09/27 05:26:31;;;;;;;27.98;22.00;;;;;;;18.79;100.00;100839.38;4976439;28;20244;-77
2021/09/27 05:29:14;;;;;;;33.90;21.33;;;;;;;18.68;100.00;100832.56;5012922;28;20201;-77
2021/09/27 05:32:08;;;;;;;34.70;22.08;;;;;;;18.67;100.00;100831.75;4981634;28;20259;-77
2021/09/27 05:35:00;;;;;;;30.63;20.75;;;;;;;18.56;100.00;100824.13;5012851;28;20200;-77
2021/09/27 05:37:32;;;;;;;37.13;21.48;;;;;;;18.50;100.00;100825.41;4998658;28;20220;-76
2021/09/27 05:40:23;;;;;;;36.65;22.33;;;;;;;18.56;100.00;100835.13;5013261;28;20200;-77
2021/09/27 05:43:09;;;;;;;38.35;22.02;;;;;;;18.53;100.00;100836.59;4997117;28;20217;-76
2021/09/27 05:46:00;;;;;;;34.72;22.17;;;;;;;18.65;100.00;100838.72;5012247;28;20243;-77
2021/09/27 05:49:05;;;;;;;29.42;21.90;;;;;;;18.71;100.00;100834.69;5014185;28;20291;-77
2021/09/27 05:51:44;;;;;;;33.63;21.63;;;;;;;18.70;100.00;100831.13;4996620;28;20282;-77
2021/09/27 05:54:28;;;;;;;29.13;20.27;;;;;;;18.72;100.00;100819.78;4980404;28;20181;-77
2021/09/27 05:57:06;;;;;;;31.42;21.23;;;;;;;18.79;100.00;100820.94;4980157;28;20299;-77
2021/09/27 05:59:53;;;;;;;29.27;20.83;;;;;;;18.72;100.00;100817.03;4982388;28;20185;-77
2021/09/27 06:02:44;;;;;;;27.85;20.50;;;;;;;18.59;100.00;100831.75;5009371;28;20226;-77
2021/09/27 06:05:19;;;;;;;40.42;21.92;;;;;;;18.68;100.00;100822.38;4995565;28;20181;-77
2021/09/27 06:08:10;;;;;;;31.50;19.55;;;;;;;18.63;100.00;100825.28;5012543;28;20205;-77
2021/09/27 06:11:00;;;;;;;30.27;20.13;;;;;;;18.77;100.00;100819.63;4996743;28;20224;-77
2021/09/27 06:13:35;;;;;;;29.52;20.25;;;;;;;18.82;100.00;100819.47;4996755;28;20181;-77
2021/09/27 06:16:33;;;;;;;28.55;19.67;;;;;;;18.90;100.00;100820.28;4992749;28;20819;-78
2021/09/27 06:19:08;;;;;;;30.63;20.90;;;;;;;18.95;100.00;100811.88;4978255;28;20258;-77
2021/09/27 06:21:59;;;;;;;34.88;20.33;;;;;;;18.73;100.00;100821.41;4985242;28;20236;-77
2021/09/27 06:24:38;;;;;;;34.83;20.65;;;;;;;18.76;100.00;100823.53;4978536;28;20202;-77
2021/09/27 06:27:11;;;;;;;29.92;19.70;;;;;;;18.93;100.00;100813.31;4980755;28;20225;-77
2021/09/27 06:30:14;;;;;;;30.67;20.45;;;;;;;19.00;100.00;100808.97;5012893;28;20224;-77
2021/09/27 06:32:50;;;;;;;27.10;19.55;;;;;;;18.97;100.00;100815.16;4996461;28;20252;-77
2021/09/27 06:35:18;;;;;;;38.60;20.58;;;;;;;18.97;100.00;100803.31;4996277;28;20197;-77
2021/09/27 06:37:43;;;;;;;33.65;20.50;;;;;;;19.02;100.00;100806.72;4979902;28;20583;-76
2021/09/27 06:40:12;;;;;;;38.38;21.73;;;;;;;19.15;100.00;100800.22;4975679;28;20193;-77
2021/09/27 06:42:37;;;;;;;39.28;21.77;;;;;;;19.05;100.00;100800.56;4977047;28;20182;-77
2021/09/27 06:45:05;;;;;;;45.90;23.52;;;;;;;19.03;100.00;100796.53;4988872;28;20177;-77
2021/09/27 06:47:30;;;;;;;35.33;21.90;;;;;;;18.90;100.00;100797.47;4960783;28;20267;-77
2021/09/27 06:50:00;;;;;;;35.90;21.35;;;;;;;18.94;100.00;100812.22;4984388;28;20189;-77
2021/09/27 06:52:27;;;;;;;40.10;22.00;;;;;;;19.03;100.00;100807.53;4995981;28;20283;-77
2021/09/27 06:54:52;;;;;;;36.83;22.60;;;;;;;19.17;100.00;100808.97;4980011;28;20184;-77
2021/09/27 06:57:20;;;;;;;38.30;21.98;;;;;;;19.16;100.00;100795.56;4994917;28;20233;-77
2021/09/27 06:59:46;;;;;;;35.42;22.33;;;;;;;19.34;100.00;100807.03;4995372;28;20554;-77
2021/09/27 07:02:14;;;;;;;33.60;21.65;;;;;;;19.54;100.00;100792.59;4979315;28;20225;-77
2021/09/27 07:04:41;;;;;;;35.72;21.30;;;;;;;19.46;100.00;100796.16;4965876;28;20185;-78
2021/09/27 07:07:07;;;;;;;37.78;21.80;;;;;;;19.54;100.00;100808.28;4978894;28;20223;-77
2021/09/27 07:09:36;;;;;;;32.83;22.23;;;;;;;19.58;100.00;100800.97;4995474;28;20583;-77
2021/09/27 07:12:05;;;;;;;39.83;22.10;;;;;;;19.63;100.00;100807.13;4994896;28;20221;-77
2021/09/27 07:14:30;;;;;;;40.63;22.83;;;;;;;19.48;100.00;100807.66;4979505;28;20189;-77
2021/09/27 07:16:56;;;;;;;43.88;23.58;;;;;;;19.68;100.00;100810.53;4990652;28;20226;-77
2021/09/27 07:19:22;;;;;;;35.35;22.00;;;;;;;19.50;100.00;100810.88;4991444;28;20201;-77
2021/09/27 07:21:50;;;;;;;33.60;21.08;;;;;;;19.66;100.00;100823.03;4974937;28;20221;-77
2021/09/27 07:24:15;;;;;;;37.63;21.42;;;;;;;19.76;100.00;100822.66;4976287;28;20169;-77
2021/09/27 07:26:43;;;;;;;30.67;21.63;;;;;;;20.02;100.00;100815.97;4993945;28;20363;-77
2021/09/27 07:29:09;;;;;;;34.08;21.92;;;;;;;19.82;100.00;100821.41;4979342;28;20244;-77
2021/09/27 07:31:35;;;;;;;33.58;21.77;;;;;;;19.73;100.00;100818.63;4984730;28;20225;-77
2021/09/27 07:34:04;;;;;;;30.90;21.00;;;;;;;19.65;100.00;100826.09;4959268;28;20655;-77
2021/09/27 07:36:29;;;;;;;29.25;20.50;;;;;;;19.75;100.00;100832.91;4977466;28;20320;-77
2021/09/27 07:39:00;;;;;;;29.52;20.77;;;;;;;19.68;100.00;100823.50;5010961;28;20291;-76
2021/09/27 07:41:29;;;;;;;28.98;20.25;;;;;;;19.90;100.00;100817.81;4978940;28;20262;-79
2021/09/27 07:43:55;;;;;;;32.47;20.65;;;;;;;19.70;100.00;100826.75;4996141;28;20173;-78
2021/09/27 07:46:23;;;;;;;31.08;20.60;;;;;;;19.89;100.00;100827.19;4974783;28;20224;-76
2021/09/27 07:48:48;;;;;;;30.33;19.92;;;;;;;19.84;100.00;100830.97;4991131;28;20202;-76
2021/09/27 07:51:14;;;;;;;30.48;20.48;;;;;;;20.01;100.00;100825.38;4997891;28;20693;-76
2021/09/27 07:53:40;;;;;;;31.13;20.98;;;;;;;19.87;100.00;100826.72;4978349;28;20181;-76
2021/09/27 07:56:05;;;;;;;29.27;20.27;;;;;;;19.64;100.00;100832.78;5010704;28;20219;-78
2021/09/27 07:58:35;;;;;;;27.90;20.58;;;;;;;19.60;100.00;100838.13;4995479;28;20201;-78
2021/09/27 08:01:03;;;;;;;27.08;20.60;;;;;;;19.91;100.00;100833.22;4978934;28;20299;-77
2021/09/27 08:03:31;;;;;;;27.60;20.40;;;;;;;19.94;100.00;100836.09;4994126;28;20204;-76
2021/09/27 08:05:56;;;;;;;26.17;20.23;;;;;;;19.88;100.00;100837.44;4970264;28;20226;-76
2021/09/27 08:08:22;;;;;;;24.75;19.85;;;;;;;20.10;100.00;100839.97;4990953;28;20361;-76
2021/09/27 08:10:50;;;;;;;26.00;20.05;;;;;;;20.13;100.00;100845.63;4976934;28;20313;-76
2021/09/27 08:13:19;;;;;;;25.45;20.05;;;;;;;20.19;100.00;100843.50;4974701;28;20185;-76
2021/09/27 08:15:51;;;;;;;25.92;19.90;;;;;;;20.43;100.00;100850.84;4977765;28;20243;-77
2021/09/27 08:18:19;;;;;;;23.42;19.27;;;;;;;20.22;100.00;100851.13;4978394;28;20306;-76
2021/09/27 08:20:54;;;;;;;23.10;19.05;;;;;;;20.24;100.00;100844.13;5009864;28;20315;-77
2021/09/27 08:23:22;;;;;;;24.27;19.70;;;;;;;20.55;100.00;100842.69;4974730;28;20232;-78
2021/09/27 08:25:53;;;;;;;24.00;19.42;;;;;;;20.62;100.00;100840.25;4974228;28;20283;-77
2021/09/27 08:28:20;;;;;;;23.85;19.08;;;;;;;20.43;100.00;100838.19;4993880;28;20732;-77
2021/09/27 08:30:50;;;;;;;25.05;18.15;;;;;;;20.49;100.00;100835.72;4977425;28;20217;-77
2021/09/27 08:33:18;;;;;;;22.23;18.30;;;;;;;20.77;100.00;100834.13;4994183;28;20188;-77
2021/09/27 08:35:47;;;;;;;23.10;18.88;;;;;;;20.69;100.00;100826.69;4993325;28;20657;-77
2021/09/27 08:38:12;;;;;;;22.25;18.00;;;;;;;20.77;100.00;100839.66;4974388;28;20271;-77
2021/09/27 08:40:52;;;;;;;20.73;18.35;;;;;;;20.89;100.00;100831.44;5006610;28;20611;-77
2021/09/27 08:43:39;;;;;;;22.73;19.17;;;;;;;20.81;100.00;100834.28;4961234;28;20196;-76
2021/09/27 08:46:17;;;;;;;22.73;19.42;;;;;;;20.57;100.00;100836.84;4979183;28;20221;-77
2021/09/27 08:49:01;;;;;;;24.77;19.90;;;;;;;20.82;100.00;100836.69;4958202;28;20235;-76
2021/09/27 08:51:36;;;;;;;21.30;18.55;;;;;;;20.61;100.00;100840.53;4975964;28;20287;-76
2021/09/27 08:54:10;;;;;;;19.83;17.65;;;;;;;20.77;100.00;100839.66;4978210;28;20181;-76
2021/09/27 08:56:39;;;;;;;20.05;17.88;;;;;;;20.64;100.00;100826.91;4977858;28;20227;-77
2021/09/27 08:59:41;;;;;;;20.85;18.65;;;;;;;20.77;100.00;100836.91;4962610;28;20354;-76
2021/09/27 09:02:11;;;;;;;18.98;17.08;;;;;;;20.92;100.00;100825.25;5013399;28;20239;-76
2021/09/27 09:04:48;;;;;;;20.13;17.80;;;;;;;21.07;100.00;100824.66;4996674;28;20588;-76
2021/09/27 09:07:16;;;;;;;21.83;19.33;;;;;;;21.20;100.00;100820.81;5012278;28;20228;-76
2021/09/27 09:09:50;;;;;;;21.42;18.67;;;;;;;21.19;100.00;100819.16;4964690;28;20192;-76
2021/09/27 09:12:34;;;;;;;19.15;17.20;;;;;;;21.21;100.00;100822.41;4977838;28;20265;-77
2021/09/27 09:15:07;;;;;;;22.77;17.88;;;;;;;21.13;100.00;100823.28;4994050;28;20608;-77
2021/09/27 09:17:47;;;;;;;18.80;16.23;;;;;;;21.30;100.00;100821.22;4980851;28;20225;-76
2021/09/27 09:20:22;;;;;;;18.45;16.55;;;;;;;21.43;100.00;100820.94;4996720;28;20189;-77
2021/09/27 09:22:48;;;;;;;17.80;15.90;;;;;;;21.43;100.00;100825.69;4976870;28;20173;-76
2021/09/27 09:25:22;;;;;;;16.83;15.13;;;;;;;21.51;100.00;100819.25;4992869;28;20184;-76
2021/09/27 09:27:47;;;;;;;17.83;15.88;;;;;;;21.64;100.00;100827.25;4996042;28;20212;-76
2021/09/27 09:30:16;;;;;;;17.33;15.48;;;;;;;21.66;100.00;100819.41;4980117;28;20193;-77
2021/09/27 09:32:43;;;;;;;17.83;16.02;;;;;;;21.70;100.00;100826.69;5013186;28;20189;-77
2021/09/27 09:35:26;;;;;;;17.25;15.55;;;;;;;21.88;100.00;100833.63;4980285;28;20217;-76
2021/09/27 09:37:57;;;;;;;16.27;14.60;;;;;;;21.48;100.00;100837.34;4979759;28;20217;-76
2021/09/27 09:40:48;;;;;;;16.58;14.65;;;;;;;21.35;100.00;100830.06;4980968;28;20192;-75
2021/09/27 09:43:16;;;;;;;15.75;14.15;;;;;;;21.07;100.00;100828.22;4996294;28;20181;-76
2021/09/27 09:45:47;;;;;;;15.48;13.88;;;;;;;21.32;100.00;100825.25;4964970;28;20225;-75
2021/09/27 09:48:24;;;;;;;15.30;13.75;;;;;;;21.52;100.00;100818.91;4996675;28;20578;-75
2021/09/27 09:50:52;;;;;;;14.93;13.60;;;;;;;21.67;100.00;100827.38;4996455;28;20221;-76
2021/09/27 09:53:36;;;;;;;15.90;12.98;;;;;;;21.95;100.00;100827.56;5012685;28;20553;-76
2021/09/27 09:56:17;;;;;;;14.48;12.90;;;;;;;22.37;100.00;100814.03;5011831;28;20813;-77
2021/09/27 09:58:43;;;;;;;14.02;12.77;;;;;;;22.05;100.00;100820.44;4996147;28;20215;-76
2021/09/27 10:01:23;;;;;;;14.07;12.73;;;;;;;21.95;100.00;100822.03;5011920;28;20323;-76
2021/09/27 10:04:19;;;;;;;13.98;12.70;;;;;;;21.96;100.00;100823.63;4996805;28;20300;-77
2021/09/27 10:06:48;;;;;;;14.98;13.48;;;;;;;21.68;100.00;100817.09;4980320;28;20217;-77
2021/09/27 10:09:28;;;;;;;13.68;12.18;;;;;;;21.68;100.00;100817.94;5009474;28;20582;-76
2021/09/27 10:12:05;;;;;;;13.85;12.45;;;;;;;21.79;100.00;100818.28;4973006;28;20222;-76
2021/09/27 10:14:31;;;;;;;13.57;12.27;;;;;;;21.83;100.00;100819.22;4999231;28;20184;-75
2021/09/27 10:17:10;;;;;;;14.90;12.45;;;;;;;21.93;100.00;100808.53;4991937;28;20605;-76
2021/09/27 10:19:48;;;;;;;13.45;12.15;;;;;;;22.10;100.00;100802.78;4994120;28;20191;-76
2021/09/27 10:22:24;;;;;;;13.57;12.20;;;;;;;22.21;100.00;100799.25;4977541;28;20308;-76
2021/09/27 10:24:59;;;;;;;14.00;12.60;;;;;;;22.58;100.00;100795.31;4992775;28;20189;-77
2021/09/27 10:27:35;;;;;;;13.23;11.85;;;;;;;22.76;100.00;100802.22;4991435;28;20236;-77
2021/09/27 10:30:12;;;;;;;13.90;12.60;;;;;;;22.41;100.00;100801.09;4963006;28;20185;-76
2021/09/27 10:32:43;;;;;;;13.18;11.90;;;;;;;22.16;100.00;100802.25;4976278;28;20209;-76
2021/09/27 10:35:27;;;;;;;14.20;12.38;;;;;;;22.17;100.00;100803.84;5009117;28;20211;-76
2021/09/27 10:38:02;;;;;;;12.98;11.77;;;;;;;22.13;100.00;100805.66;4995197;28;20270;-76
2021/09/27 10:40:27;;;;;;;14.13;12.82;;;;;;;22.10;100.00;100800.81;4995144;28;20666;-76
2021/09/27 10:42:55;;;;;;;13.07;11.90;;;;;;;21.94;100.00;100787.19;4963588;28;20204;-76
2021/09/27 10:45:23;;;;;;;12.77;11.48;;;;;;;21.77;100.00;100790.16;4976094;28;20221;-76
2021/09/27 10:47:51;;;;;;;13.25;11.95;;;;;;;21.89;100.00;100790.19;4975360;28;20209;-76
2021/09/27 10:50:23;;;;;;;13.27;11.88;;;;;;;22.15;100.00;100794.25;4978711;28;20189;-76
2021/09/27 10:52:49;;;;;;;13.52;12.15;;;;;;;22.39;100.00;100783.22;4976206;28;20174;-76
2021/09/27 10:55:24;;;;;;;12.85;11.32;;;;;;;22.56;100.00;100792.09;5007908;28;20283;-77
2021/09/27 10:57:51;;;;;;;12.63;11.50;;;;;;;22.30;100.00;100790.84;5011081;28;20577;-77
2021/09/27 11:00:39;;;;;;;13.57;12.30;;;;;;;22.68;100.00;100786.53;4975501;28;20184;-76
2021/09/27 11:03:29;;;;;;;12.73;11.52;;;;;;;22.62;100.00;100780.44;5008333;28;20655;-77
2021/09/27 11:06:35;;;;;;;13.20;11.85;;;;;;;22.56;100.00;100789.31;4999755;28;20301;-77
2021/09/27 11:09:17;;;;;;;12.20;11.10;;;;;;;22.70;100.00;100773.16;4997779;28;20216;-77
2021/09/27 11:11:45;;;;;;;12.77;10.93;;;;;;;23.01;100.00;100782.47;4995359;28;20307;-77
2021/09/27 11:14:19;;;;;;;11.82;10.73;;;;;;;23.16;100.00;100779.75;5011514;28;20243;-77
2021/09/27 11:16:53;;;;;;;12.15;11.05;;;;;;;23.15;100.00;100780.91;4994317;28;20228;-77
2021/09/27 11:19:33;;;;;;;12.98;11.77;;;;;;;22.84;100.00;100780.72;4975407;28;20714;-76
2021/09/27 11:22:43;;;;;;;12.20;10.88;;;;;;;22.68;100.00;100781.00;4990564;28;20312;-77
2021/09/27 11:25:22;;;;;;;11.43;10.32;;;;;;;22.50;100.00;100783.22;4979714;28;20201;-76
2021/09/27 11:28:22;;;;;;;11.27;10.13;;;;;;;22.43;100.00;100784.94;4990854;28;20193;-76
2021/09/27 11:31:17;;;;;;;10.90;9.90;;;;;;;22.43;100.00;100779.41;5006742;28;20658;-76
2021/09/27 11:34:06;;;;;;;11.43;10.30;;;;;;;22.58;100.00;100779.53;4994506;28;20262;-77
2021/09/27 11:36:48;;;;;;;11.20;10.20;;;;;;;22.44;100.00;100769.94;4947612;28;20237;-76
2021/09/27 11:39:16;;;;;;;10.95;9.98;;;;;;;22.46;100.00;100773.97;4973202;28;20224;-76
2021/09/27 11:42:02;;;;;;;11.00;10.10;;;;;;;22.55;100.00;100773.88;5003801;28;20256;-76